Time;durP1;ratioP1;P1;durP2;ratioP2;P2;SDS_P1;SDS_P2;PMS_P1;PMS_P2;Temp;Humidity;BMP_temperature;BMP_pressure;BME280_temperature;BME280_humidity;BME280_pressure;Samples;Min_cycle;Max_cycle;Signal;HPM_P1;HPM_P2
2024/03/13 00:01:17;;;;;;;14.45;9.90;;;12.10;88.20;;;;;;4994088;28;20033;-77
2024/03/13 00:03:42;;;;;;;12.75;8.88;;;12.10;88.10;;;;;;4976846;28;20026;-78
2024/03/13 00:06:10;;;;;;;12.65;9.07;;;12.10;88.10;;;;;;4976315;28;20065;-77
2024/03/13 00:08:36;;;;;;;12.35;9.05;;;12.20;88.20;;;;;;4994143;28;20018;-77
2024/03/13 00:11:01;;;;;;;13.35;8.95;;;12.10;88.20;;;;;;4994324;28;20084;-77
2024/03/13 00:13:29;;;;;;;12.32;8.50;;;12.20;88.20;;;;;;4976064;28;20479;-77
2024/03/13 00:15:55;;;;;;;11.73;8.40;;;12.10;88.10;;;;;;4976240;28;20031;-78
2024/03/13 00:18:21;;;;;;;12.63;8.98;;;12.10;88.10;;;;;;4976275;28;20399;-77
2024/03/13 00:20:46;;;;;;;12.55;8.43;;;12.10;88.10;;;;;;4976398;28;20037;-77
2024/03/13 00:23:12;;;;;;;12.88;8.57;;;12.10;88.10;;;;;;4993295;28;20450;-78
2024/03/13 00:25:38;;;;;;;13.23;8.98;;;12.10;88.10;;;;;;4976261;28;20030;-77
2024/03/13 00:28:03;;;;;;;13.25;9.43;;;12.10;88.10;;;;;;4976450;28;20023;-77
2024/03/13 00:30:29;;;;;;;12.50;8.80;;;12.10;88.10;;;;;;4994185;28;20030;-77
2024/03/13 00:32:55;;;;;;;12.32;8.40;;;12.10;88.10;;;;;;4993480;28;20054;-78
2024/03/13 00:35:21;;;;;;;11.98;8.65;;;12.10;88.10;;;;;;4993774;28;20026;-78
2024/03/13 00:37:47;;;;;;;12.77;8.93;;;12.10;88.20;;;;;;4976062;28;20491;-77
2024/03/13 00:40:15;;;;;;;12.73;8.55;;;12.10;88.20;;;;;;4993076;28;20030;-78
2024/03/13 00:42:42;;;;;;;12.73;8.75;;;12.10;88.20;;;;;;4993283;28;20444;-78
2024/03/13 00:45:08;;;;;;;12.05;8.70;;;12.10;88.10;;;;;;4976138;28;20030;-78
2024/03/13 00:47:34;;;;;;;12.77;8.50;;;12.10;88.10;;;;;;4993245;28;20030;-77
2024/03/13 00:49:59;;;;;;;12.43;8.50;;;12.10;88.20;;;;;;4976137;28;20037;-77
2024/03/13 00:52:25;;;;;;;12.15;8.82;;;12.10;88.10;;;;;;4975348;28;20026;-77
2024/03/13 00:54:50;;;;;;;12.27;8.63;;;12.10;88.10;;;;;;4993214;28;20033;-78
2024/03/13 00:57:17;;;;;;;12.40;8.52;;;12.10;88.10;;;;;;4975978;28;20026;-77
2024/03/13 00:59:43;;;;;;;13.50;9.00;;;12.10;88.10;;;;;;4993356;28;20030;-78
2024/03/13 01:02:09;;;;;;;12.45;8.65;;;12.10;88.10;;;;;;4992906;28;20034;-77
2024/03/13 01:04:36;;;;;;;13.10;9.00;;;12.10;88.10;;;;;;4975865;28;20030;-77
2024/03/13 01:07:02;;;;;;;11.75;8.05;;;12.10;88.10;;;;;;4977495;28;20034;-77
2024/03/13 01:09:28;;;;;;;12.05;8.80;;;12.10;88.10;;;;;;4990710;28;20487;-77
2024/03/13 01:11:54;;;;;;;12.32;8.85;;;12.10;88.10;;;;;;5012421;28;20037;-77
2024/03/13 01:14:20;;;;;;;13.30;9.07;;;12.10;88.10;;;;;;4995103;28;20520;-78
2024/03/13 01:16:51;;;;;;;12.30;8.38;;;12.10;88.10;;;;;;5012926;28;20026;-77
2024/03/13 01:19:19;;;;;;;13.25;8.80;;;12.10;88.10;;;;;;5012405;28;20034;-77
2024/03/13 01:21:48;;;;;;;13.25;9.07;;;12.10;88.10;;;;;;4992992;28;20079;-77
2024/03/13 01:24:14;;;;;;;12.38;8.52;;;12.10;88.10;;;;;;5012059;28;20093;-77
2024/03/13 01:26:39;;;;;;;14.27;9.32;;;12.10;88.10;;;;;;5012123;28;20022;-77
2024/03/13 01:29:07;;;;;;;12.13;8.27;;;12.10;88.00;;;;;;5011885;28;20050;-76
2024/03/13 01:31:32;;;;;;;13.00;9.07;;;12.10;88.00;;;;;;4994567;28;20037;-78
2024/03/13 01:33:58;;;;;;;12.57;8.93;;;12.10;88.00;;;;;;4994529;28;20030;-77
2024/03/13 01:37:55;;;;;;;12.73;8.80;;;12.10;87.90;;;;;;5012092;28;20026;-77
2024/03/13 01:39:09;;;;;;;13.20;9.00;;;12.10;87.90;;;;;;5011579;28;20046;-78
2024/03/13 01:55:28;;;;;;;12.65;8.63;;;12.10;87.80;;;;;;5012274;28;20041;-77
2024/03/13 01:58:08;;;;;;;12.38;8.77;;;12.10;87.80;;;;;;5012063;28;20037;-78
2024/03/13 02:03:22;;;;;;;12.55;8.63;;;12.10;87.80;;;;;;5011194;28;20123;-77
2024/03/13 02:05:49;;;;;;;11.57;8.52;;;12.10;87.80;;;;;;5011507;28;20022;-77
2024/03/13 02:08:17;;;;;;;14.68;9.73;;;12.10;87.80;;;;;;5011631;28;20490;-77
2024/03/13 02:10:43;;;;;;;13.98;9.27;;;12.10;87.80;;;;;;5011671;28;20399;-78
2024/03/13 02:13:13;;;;;;;13.15;8.60;;;12.10;87.80;;;;;;5011382;28;20030;-77
2024/03/13 02:15:41;;;;;;;12.90;8.95;;;12.10;87.80;;;;;;4994447;28;20026;-77
2024/03/13 02:18:29;;;;;;;13.18;8.88;;;12.10;87.80;;;;;;5011629;28;20099;-78
2024/03/13 02:21:01;;;;;;;13.60;9.00;;;12.10;87.90;;;;;;5011563;28;20036;-77
2024/03/13 02:23:30;;;;;;;13.00;8.77;;;12.10;87.90;;;;;;4993957;28;20025;-77
2024/03/13 02:25:56;;;;;;;14.18;9.52;;;12.10;87.90;;;;;;4993950;28;20029;-77
2024/03/13 02:28:48;;;;;;;13.13;9.25;;;12.10;87.80;;;;;;5011621;28;20050;-77
2024/03/13 02:31:14;;;;;;;13.20;9.23;;;12.10;87.80;;;;;;4990007;28;20049;-78
2024/03/13 02:33:40;;;;;;;13.23;9.07;;;12.10;87.80;;;;;;4993782;28;20774;-78
2024/03/13 02:36:05;;;;;;;13.13;8.75;;;12.10;87.80;;;;;;5011545;28;20026;-78
2024/03/13 02:38:31;;;;;;;13.68;8.73;;;12.10;87.80;;;;;;5012114;28;20034;-77
2024/03/13 02:40:57;;;;;;;13.48;9.00;;;12.10;87.80;;;;;;4997688;28;20022;-78
2024/03/13 02:43:23;;;;;;;13.38;9.10;;;12.10;87.80;;;;;;5015532;28;20030;-77
2024/03/13 02:45:48;;;;;;;13.02;8.73;;;12.10;87.80;;;;;;5015755;28;20028;-77
2024/03/13 02:48:15;;;;;;;12.93;9.25;;;12.10;87.80;;;;;;5015609;28;20088;-78
2024/03/13 02:50:42;;;;;;;12.75;8.93;;;12.10;87.90;;;;;;5015210;28;20022;-77
2024/03/13 02:53:08;;;;;;;13.73;9.27;;;12.10;87.90;;;;;;4997165;28;20026;-76
2024/03/13 02:55:34;;;;;;;12.32;8.63;;;12.10;87.90;;;;;;4997598;28;20026;-78
2024/03/13 02:58:01;;;;;;;13.60;9.52;;;12.10;87.80;;;;;;5015003;28;20037;-77
2024/03/13 03:00:27;;;;;;;12.85;9.23;;;12.10;87.90;;;;;;5015076;28;20095;-77
2024/03/13 03:02:54;;;;;;;14.10;9.73;;;12.10;87.90;;;;;;4996902;28;20478;-77
2024/03/13 03:05:19;;;;;;;12.98;8.70;;;12.10;87.80;;;;;;4997176;28;20502;-77
2024/03/13 03:07:45;;;;;;;14.13;9.10;;;12.10;87.90;;;;;;5014799;28;20042;-77
2024/03/13 03:10:11;;;;;;;12.88;9.10;;;12.10;87.80;;;;;;5015187;28;20052;-77
2024/03/13 03:12:37;;;;;;;13.18;8.70;;;12.10;87.90;;;;;;5014454;28;20533;-77
2024/03/13 03:15:03;;;;;;;13.02;9.07;;;12.10;87.80;;;;;;5014687;28;20021;-76
2024/03/13 03:17:28;;;;;;;14.70;9.50;;;12.10;87.90;;;;;;5014836;28;20115;-77
2024/03/13 03:19:54;;;;;;;13.98;9.77;;;12.10;87.80;;;;;;4997029;28;20061;-78
2024/03/13 03:22:19;;;;;;;13.80;9.68;;;12.10;87.90;;;;;;4996855;28;20024;-77
2024/03/13 03:24:48;;;;;;;13.20;9.13;;;12.10;87.80;;;;;;4996633;28;20084;-77
2024/03/13 03:27:14;;;;;;;12.48;8.90;;;12.10;87.80;;;;;;4996708;28;20084;-77
2024/03/13 03:29:43;;;;;;;12.95;9.40;;;12.10;87.90;;;;;;5014341;28;20430;-77
2024/03/13 03:32:09;;;;;;;13.18;8.90;;;12.10;87.80;;;;;;4996458;28;20030;-77
2024/03/13 03:34:35;;;;;;;13.27;9.02;;;12.10;87.80;;;;;;5014474;28;20076;-77
2024/03/13 03:37:03;;;;;;;12.85;8.75;;;12.10;87.80;;;;;;4996664;28;20038;-77
2024/03/13 03:39:29;;;;;;;12.93;9.20;;;12.10;87.80;;;;;;5014104;28;20038;-78
2024/03/13 03:41:56;;;;;;;12.35;8.85;;;12.10;87.90;;;;;;5013981;28;20029;-77
2024/03/13 03:44:21;;;;;;;12.75;8.57;;;12.10;87.90;;;;;;4996518;28;20026;-78
2024/03/13 03:46:47;;;;;;;12.05;8.27;;;12.10;87.90;;;;;;5014288;28;20370;-78
2024/03/13 03:49:12;;;;;;;13.05;8.52;;;12.10;87.90;;;;;;5008983;28;20106;-77
2024/03/13 03:51:38;;;;;;;12.60;8.63;;;12.10;87.90;;;;;;4995417;28;20061;-77
2024/03/13 03:54:05;;;;;;;11.40;8.23;;;12.10;87.90;;;;;;4996258;28;20022;-77
2024/03/13 03:56:32;;;;;;;12.32;9.13;;;12.10;87.90;;;;;;5014111;28;20022;-77
2024/03/13 03:58:57;;;;;;;12.85;9.07;;;12.10;87.80;;;;;;4996057;28;20584;-78
2024/03/13 04:01:26;;;;;;;12.38;8.55;;;12.10;87.80;;;;;;4996088;28;20030;-77
2024/03/13 04:03:52;;;;;;;12.35;8.40;;;12.10;87.80;;;;;;5013536;28;20108;-78
2024/03/13 04:06:17;;;;;;;11.90;8.05;;;12.00;87.80;;;;;;5013818;28;20109;-77
2024/03/13 04:08:47;;;;;;;12.35;8.48;;;12.10;87.80;;;;;;5013673;28;20076;-78
2024/03/13 04:11:12;;;;;;;13.43;8.95;;;12.10;87.90;;;;;;5013398;28;20025;-77
2024/03/13 04:13:39;;;;;;;12.50;8.68;;;12.10;87.80;;;;;;5013462;28;20083;-77
2024/03/13 04:16:05;;;;;;;13.10;8.93;;;12.10;87.80;;;;;;5009530;28;20105;-77
2024/03/13 04:18:31;;;;;;;11.73;8.05;;;12.10;87.80;;;;;;4991353;28;20071;-78
2024/03/13 04:20:58;;;;;;;11.68;8.68;;;12.10;87.80;;;;;;4990511;28;20169;-78
2024/03/13 04:23:23;;;;;;;11.95;8.38;;;12.10;87.80;;;;;;5008419;28;20030;-78
2024/03/13 04:25:49;;;;;;;13.00;8.85;;;12.00;87.70;;;;;;5010631;28;20467;-77
2024/03/13 04:28:15;;;;;;;12.25;8.50;;;12.10;87.80;;;;;;5008565;28;20036;-78
2024/03/13 04:30:40;;;;;;;12.48;8.50;;;12.10;87.80;;;;;;4989947;28;20026;-79
2024/03/13 04:33:07;;;;;;;13.15;9.00;;;12.10;87.80;;;;;;4988565;28;20506;-77
2024/03/13 04:35:32;;;;;;;12.25;8.25;;;12.10;87.80;;;;;;4988939;28;20040;-77
2024/03/13 04:37:58;;;;;;;13.68;8.90;;;12.10;87.80;;;;;;5007256;28;20034;-78
2024/03/13 04:40:23;;;;;;;12.15;8.55;;;12.10;87.80;;;;;;4991236;28;20522;-77
2024/03/13 04:42:49;;;;;;;12.55;9.15;;;12.10;87.80;;;;;;4995795;28;20034;-78
2024/03/13 04:45:15;;;;;;;11.68;8.15;;;12.10;87.80;;;;;;5007507;28;20168;-78
2024/03/13 04:47:41;;;;;;;12.07;7.97;;;12.10;87.80;;;;;;5007645;28;20026;-78
2024/03/13 04:50:08;;;;;;;11.07;7.90;;;12.10;87.80;;;;;;5006025;28;20458;-77
2024/03/13 04:52:37;;;;;;;12.27;8.68;;;12.10;87.90;;;;;;5006996;28;20034;-78
2024/03/13 04:55:03;;;;;;;12.52;8.48;;;12.10;87.90;;;;;;5006593;28;20033;-78
2024/03/13 04:57:29;;;;;;;12.90;8.93;;;12.10;87.90;;;;;;5007375;28;20030;-78
2024/03/13 04:59:54;;;;;;;11.90;8.10;;;12.10;87.80;;;;;;5007381;28;20036;-77
2024/03/13 05:02:20;;;;;;;12.13;8.25;;;12.10;87.80;;;;;;5006125;28;20520;-78
2024/03/13 05:04:45;;;;;;;11.85;8.15;;;12.10;87.80;;;;;;5008162;28;20021;-77
2024/03/13 05:07:12;;;;;;;12.63;9.10;;;12.10;87.80;;;;;;5008249;28;20022;-78
2024/03/13 05:09:40;;;;;;;12.55;8.80;;;12.10;87.80;;;;;;5007104;28;20022;-77
2024/03/13 05:12:06;;;;;;;11.80;8.23;;;12.10;87.80;;;;;;5007878;28;20550;-77
2024/03/13 05:14:32;;;;;;;12.35;8.45;;;12.10;87.80;;;;;;5007871;28;20080;-78
2024/03/13 05:16:57;;;;;;;12.95;8.43;;;12.10;88.30;;;;;;5008516;28;20378;-78
2024/03/13 05:19:22;;;;;;;12.70;8.65;;;12.10;87.90;;;;;;5009053;28;20355;-78
2024/03/13 05:21:48;;;;;;;12.52;8.43;;;12.10;87.80;;;;;;5008273;28;20512;-77
2024/03/13 05:24:14;;;;;;;12.27;8.40;;;12.00;87.80;;;;;;5007097;28;20029;-78
2024/03/13 05:26:41;;;;;;;12.75;8.77;;;12.10;87.80;;;;;;5007091;28;20030;-79
2024/03/13 05:29:08;;;;;;;12.38;8.38;;;12.10;87.80;;;;;;5007893;28;20084;-80
2024/03/13 05:31:34;;;;;;;13.43;8.70;;;12.10;87.80;;;;;;5006717;28;20384;-78
2024/03/13 05:34:00;;;;;;;12.48;8.38;;;12.10;87.80;;;;;;5006089;28;20053;-79
2024/03/13 05:36:26;;;;;;;11.68;8.10;;;12.10;87.80;;;;;;5006424;28;20041;-79
2024/03/13 05:38:53;;;;;;;12.98;9.18;;;12.10;87.80;;;;;;5005861;28;20241;-79
2024/03/13 05:41:19;;;;;;;12.40;8.45;;;12.10;87.80;;;;;;5007036;28;20030;-79
2024/03/13 05:43:45;;;;;;;12.68;8.98;;;12.00;87.70;;;;;;5005529;28;20064;-79
2024/03/13 05:46:11;;;;;;;11.82;8.00;;;12.00;87.70;;;;;;5005735;28;20337;-78
2024/03/13 05:48:37;;;;;;;12.10;8.10;;;12.10;87.80;;;;;;5007517;28;20096;-78
2024/03/13 05:51:03;;;;;;;12.45;8.55;;;12.10;87.80;;;;;;5000116;28;20026;-77
2024/03/13 05:53:29;;;;;;;11.80;8.40;;;12.10;87.80;;;;;;4989009;28;20498;-78
2024/03/13 05:55:54;;;;;;;12.35;8.57;;;12.10;87.80;;;;;;4989790;28;20257;-78
2024/03/13 05:58:20;;;;;;;11.82;7.68;;;12.10;87.80;;;;;;4990279;28;20049;-78
2024/03/13 06:00:46;;;;;;;12.93;8.77;;;12.10;87.80;;;;;;4989516;28;20029;-78
2024/03/13 06:03:12;;;;;;;12.30;8.23;;;12.10;87.70;;;;;;4989144;28;20482;-78
2024/03/13 06:05:38;;;;;;;11.45;7.80;;;12.10;87.70;;;;;;4991415;28;20124;-78
2024/03/13 06:08:03;;;;;;;12.30;8.05;;;12.10;87.70;;;;;;4989987;28;20036;-79
2024/03/13 06:10:29;;;;;;;11.50;8.52;;;12.10;87.70;;;;;;4989050;28;20033;-77
2024/03/13 06:12:54;;;;;;;13.02;8.60;;;12.10;87.70;;;;;;5007899;28;20030;-79
2024/03/13 06:15:21;;;;;;;12.35;8.15;;;12.10;87.70;;;;;;4990304;28;20371;-78
2024/03/13 06:17:47;;;;;;;12.05;8.02;;;12.00;87.60;;;;;;4989195;28;20120;-77
2024/03/13 06:20:17;;;;;;;11.80;7.97;;;12.10;87.60;;;;;;4988688;28;20032;-77
2024/03/13 06:22:43;;;;;;;12.00;8.10;;;12.10;87.60;;;;;;4988487;28;20029;-78
2024/03/13 06:25:09;;;;;;;12.55;8.20;;;12.10;87.60;;;;;;4989691;28;20029;-78
2024/03/13 06:27:35;;;;;;;11.63;8.15;;;12.00;87.70;;;;;;5006330;28;20029;-80
2024/03/13 06:30:02;;;;;;;12.18;8.35;;;12.00;87.50;;;;;;5006433;28;20022;-78
2024/03/13 06:32:30;;;;;;;11.70;8.27;;;12.00;87.40;;;;;;5010072;28;20144;-78
2024/03/13 06:34:56;;;;;;;12.52;8.68;;;12.10;87.30;;;;;;5010766;28;20037;-78
2024/03/13 06:37:23;;;;;;;14.70;8.50;;;12.10;87.30;;;;;;5010755;28;20038;-78
2024/03/13 06:39:50;;;;;;;12.70;8.65;;;12.10;87.30;;;;;;4992986;28;20412;-78
2024/03/13 06:42:15;;;;;;;12.38;8.10;;;12.10;87.20;;;;;;4993169;28;20062;-79
2024/03/13 06:44:41;;;;;;;13.57;8.60;;;12.10;87.20;;;;;;4992835;28;20101;-78
2024/03/13 06:47:07;;;;;;;11.50;8.00;;;12.10;87.20;;;;;;4993107;28;20092;-78
2024/03/13 06:49:33;;;;;;;12.70;8.60;;;12.10;87.20;;;;;;4992566;28;20104;-77
2024/03/13 06:51:59;;;;;;;13.60;8.55;;;12.10;87.20;;;;;;5010534;28;20080;-78
2024/03/13 06:54:24;;;;;;;13.05;8.75;;;12.10;87.30;;;;;;5010443;28;20097;-79
2024/03/13 06:56:50;;;;;;;13.05;8.55;;;12.10;87.30;;;;;;5010727;28;20029;-79
2024/03/13 06:59:17;;;;;;;12.45;7.70;;;12.10;87.20;;;;;;4992733;28;20022;-79
2024/03/13 07:01:46;;;;;;;14.70;8.70;;;12.00;87.20;;;;;;4992394;28;20125;-78
2024/03/13 07:04:11;;;;;;;14.27;8.48;;;12.10;87.20;;;;;;4992678;28;20133;-78
2024/03/13 07:06:37;;;;;;;12.38;8.48;;;12.10;87.20;;;;;;5010319;28;20105;-78
2024/03/13 07:09:03;;;;;;;11.65;7.97;;;12.10;87.10;;;;;;4992684;28;20114;-78
2024/03/13 07:11:28;;;;;;;11.85;7.95;;;12.10;87.10;;;;;;4992585;28;20076;-80
2024/03/13 07:13:54;;;;;;;12.98;8.45;;;12.10;87.20;;;;;;4992549;28;20549;-78
2024/03/13 07:16:20;;;;;;;14.07;8.55;;;12.10;87.20;;;;;;5010538;28;20026;-79
2024/03/13 07:18:47;;;;;;;12.23;7.85;;;12.10;87.20;;;;;;5010315;28;20473;-78
2024/03/13 07:21:12;;;;;;;11.55;7.88;;;12.00;87.10;;;;;;5010497;28;20375;-78
2024/03/13 07:23:38;;;;;;;11.70;7.93;;;12.10;87.20;;;;;;5009865;28;20036;-78
2024/03/13 07:26:07;;;;;;;11.60;8.32;;;12.10;87.20;;;;;;4993729;28;20021;-78
2024/03/13 07:28:33;;;;;;;11.95;7.82;;;12.10;87.30;;;;;;4996388;28;20049;-78
2024/03/13 07:30:59;;;;;;;11.43;7.72;;;12.10;87.30;;;;;;5013940;28;20398;-78
2024/03/13 07:33:24;;;;;;;11.65;7.88;;;12.10;87.40;;;;;;4996277;28;20033;-79
2024/03/13 07:35:50;;;;;;;12.55;8.48;;;12.10;87.40;;;;;;4996336;28;20018;-78
2024/03/13 07:38:15;;;;;;;12.50;8.55;;;12.00;87.40;;;;;;5014145;28;20030;-78
2024/03/13 07:40:41;;;;;;;11.73;8.05;;;12.10;87.50;;;;;;5014211;28;20041;-79
2024/03/13 07:43:10;;;;;;;11.73;7.90;;;12.10;87.50;;;;;;4996175;28;20026;-79
2024/03/13 07:45:42;;;;;;;11.32;7.82;;;12.10;87.50;;;;;;4995972;28;20029;-78
2024/03/13 07:48:08;;;;;;;11.13;7.70;;;12.10;87.50;;;;;;5013369;28;20337;-78
2024/03/13 07:50:38;;;;;;;11.27;7.70;;;12.00;87.40;;;;;;5012596;28;20026;-78
2024/03/13 07:53:05;;;;;;;11.20;7.53;;;12.10;87.50;;;;;;4995498;28;20022;-78
2024/03/13 07:55:31;;;;;;;11.60;7.63;;;12.10;87.50;;;;;;4995853;28;20026;-78
2024/03/13 07:57:57;;;;;;;12.38;8.45;;;12.10;87.60;;;;;;5012312;28;20507;-78
2024/03/13 08:00:22;;;;;;;11.25;7.65;;;12.10;87.60;;;;;;4995597;28;20087;-79
2024/03/13 08:02:48;;;;;;;11.73;7.50;;;12.10;87.60;;;;;;4995492;28;20026;-78
2024/03/13 08:05:16;;;;;;;12.25;7.75;;;12.10;87.50;;;;;;5013319;28;20029;-77
2024/03/13 08:07:46;;;;;;;11.45;8.05;;;12.10;87.50;;;;;;5013242;28;20048;-79
2024/03/13 08:10:15;;;;;;;11.43;7.70;;;12.10;87.50;;;;;;5013182;28;20049;-78
2024/03/13 08:12:41;;;;;;;10.68;7.15;;;12.10;87.50;;;;;;4995565;28;20116;-78
2024/03/13 08:15:08;;;;;;;12.32;7.55;;;12.10;87.50;;;;;;4995326;28;20546;-79
2024/03/13 08:17:34;;;;;;;10.50;7.10;;;12.10;87.60;;;;;;4995800;28;20297;-78
2024/03/13 08:20:00;;;;;;;10.68;7.05;;;12.00;87.50;;;;;;5012758;28;20069;-78
2024/03/13 08:22:26;;;;;;;11.40;7.72;;;12.10;87.60;;;;;;4994964;28;20022;-78
2024/03/13 08:24:52;;;;;;;11.07;7.50;;;12.00;87.60;;;;;;5012852;28;20022;-78
2024/03/13 08:27:18;;;;;;;10.18;7.05;;;12.10;87.60;;;;;;5012763;28;20556;-78
2024/03/13 08:29:44;;;;;;;11.00;7.15;;;12.10;87.60;;;;;;4995130;28;20025;-78
2024/03/13 08:32:10;;;;;;;11.25;7.43;;;12.10;87.70;;;;;;5012675;28;20550;-78
2024/03/13 08:34:35;;;;;;;11.55;7.47;;;12.10;87.70;;;;;;4995421;28;20034;-79
2024/03/13 08:37:03;;;;;;;11.02;7.13;;;12.10;87.70;;;;;;5012618;28;20363;-78
2024/03/13 08:39:28;;;;;;;10.82;7.28;;;12.10;87.70;;;;;;5012566;28;20478;-78
2024/03/13 08:41:54;;;;;;;12.55;7.40;;;12.10;87.70;;;;;;4994719;28;20117;-78
2024/03/13 08:44:20;;;;;;;9.93;6.57;;;12.10;87.70;;;;;;5012801;28;20121;-78
2024/03/13 08:46:46;;;;;;;12.25;7.40;;;12.10;87.70;;;;;;5012532;28;20034;-79
2024/03/13 08:49:11;;;;;;;10.57;7.20;;;12.10;87.70;;;;;;5012526;28;20229;-78
2024/03/13 08:51:37;;;;;;;11.40;6.75;;;12.10;87.70;;;;;;4994780;28;20076;-77
2024/03/13 08:54:05;;;;;;;10.00;6.80;;;12.10;87.80;;;;;;5011949;28;20022;-78
2024/03/13 08:56:37;;;;;;;10.75;7.20;;;12.10;87.80;;;;;;5012111;28;20056;-78
2024/03/13 08:59:02;;;;;;;10.32;7.00;;;12.10;87.80;;;;;;4994653;28;20033;-78
2024/03/13 09:01:28;;;;;;;10.30;7.13;;;12.10;87.80;;;;;;4994811;28;20490;-78
2024/03/13 09:03:53;;;;;;;10.10;6.82;;;12.10;87.80;;;;;;5012052;28;20463;-78
2024/03/13 09:06:19;;;;;;;11.25;7.25;;;12.10;87.80;;;;;;4994386;28;20034;-78
2024/03/13 09:08:46;;;;;;;10.25;6.97;;;12.00;87.70;;;;;;5011986;28;20451;-78
2024/03/13 09:11:18;;;;;;;9.75;6.75;;;12.10;87.80;;;;;;5012000;28;20029;-78
2024/03/13 09:13:44;;;;;;;10.10;6.65;;;12.10;87.80;;;;;;4994193;28;20046;-78
2024/03/13 09:16:14;;;;;;;10.00;6.72;;;12.10;87.90;;;;;;5011796;28;20418;-79
2024/03/13 09:18:39;;;;;;;10.25;6.72;;;12.10;87.90;;;;;;4994640;28;20026;-78
2024/03/13 09:21:05;;;;;;;11.18;6.70;;;12.10;87.80;;;;;;4994082;28;20030;-78
2024/03/13 09:23:31;;;;;;;10.35;6.68;;;12.10;87.90;;;;;;4994191;28;20033;-78
2024/03/13 09:25:57;;;;;;;10.20;6.60;;;12.10;87.90;;;;;;5011669;28;20487;-78
2024/03/13 09:28:23;;;;;;;9.90;6.20;;;12.20;87.90;;;;;;5011446;28;20033;-80
2024/03/13 09:30:48;;;;;;;9.18;6.00;;;12.10;87.80;;;;;;4994165;28;20033;-78
2024/03/13 09:33:13;;;;;;;9.75;6.30;;;12.10;87.90;;;;;;4994118;28;20100;-78
2024/03/13 09:35:39;;;;;;;9.60;6.22;;;12.20;87.90;;;;;;5012133;28;20592;-79
2024/03/13 09:38:05;;;;;;;9.73;6.35;;;12.10;87.80;;;;;;4993968;28;20022;-78
2024/03/13 09:40:31;;;;;;;9.13;5.93;;;12.10;87.80;;;;;;5011934;28;20140;-76
2024/03/13 09:43:00;;;;;;;9.18;6.20;;;12.10;87.80;;;;;;4993800;28;20112;-77
2024/03/13 09:45:26;;;;;;;9.13;6.15;;;12.10;87.90;;;;;;4994238;28;20498;-78
2024/03/13 09:47:53;;;;;;;8.88;5.97;;;12.10;87.90;;;;;;5011365;28;20029;-78
2024/03/13 09:50:20;;;;;;;9.00;6.13;;;12.20;87.90;;;;;;5011218;28;20021;-78
2024/03/13 09:52:48;;;;;;;8.75;5.68;;;12.10;87.90;;;;;;5011072;28;20022;-80
2024/03/13 09:55:18;;;;;;;9.48;6.25;;;12.10;87.90;;;;;;4993522;28;20395;-79
2024/03/13 09:57:46;;;;;;;10.02;6.47;;;12.10;87.90;;;;;;5011101;28;20026;-78
2024/03/13 10:00:18;;;;;;;9.13;5.93;;;12.10;87.90;;;;;;5011238;28;20494;-79
2024/03/13 10:02:51;;;;;;;9.43;6.07;;;12.10;87.90;;;;;;5011353;28;20022;-78
2024/03/13 10:05:19;;;;;;;9.07;5.80;;;12.10;87.90;;;;;;5011039;28;20032;-79
2024/03/13 10:07:50;;;;;;;9.93;6.43;;;12.10;87.90;;;;;;4993558;28;20482;-79
2024/03/13 10:10:26;;;;;;;9.15;6.00;;;12.10;87.90;;;;;;5010873;28;20083;-78
2024/03/13 10:12:56;;;;;;;10.32;6.28;;;12.10;87.90;;;;;;4993279;28;20053;-78
2024/03/13 10:15:22;;;;;;;9.43;6.05;;;12.10;87.90;;;;;;4993424;28;20030;-79
2024/03/13 10:17:56;;;;;;;9.25;5.88;;;12.10;87.90;;;;;;5010826;28;20103;-78
2024/03/13 10:20:27;;;;;;;9.27;5.82;;;12.10;88.00;;;;;;4993384;28;20030;-79
2024/03/13 10:22:53;;;;;;;9.02;5.57;;;12.20;88.10;;;;;;4993268;28;20039;-78
2024/03/13 10:25:20;;;;;;;8.18;5.35;;;12.10;87.90;;;;;;5010917;28;20092;-78
2024/03/13 10:27:45;;;;;;;8.05;5.28;;;12.10;87.90;;;;;;5010814;28;20073;-79
2024/03/13 10:30:12;;;;;;;8.55;5.60;;;12.10;88.00;;;;;;4993219;28;20065;-79
2024/03/13 10:32:40;;;;;;;9.77;6.10;;;12.10;88.00;;;;;;4993258;28;20049;-78
2024/03/13 10:35:11;;;;;;;8.80;6.03;;;12.10;88.00;;;;;;5010652;28;20491;-78
2024/03/13 10:37:38;;;;;;;8.50;5.05;;;12.10;88.00;;;;;;5011108;28;20337;-78
2024/03/13 10:40:07;;;;;;;8.10;5.13;;;12.10;88.00;;;;;;5010335;28;20536;-77
2024/03/13 10:42:33;;;;;;;8.70;5.55;;;12.10;88.00;;;;;;5010533;28;20036;-78
2024/03/13 10:44:59;;;;;;;9.25;6.03;;;12.10;88.00;;;;;;5010624;28;20491;-79
2024/03/13 10:47:27;;;;;;;9.13;5.80;;;12.10;88.10;;;;;;4992914;28;20029;-78
2024/03/13 10:49:54;;;;;;;8.85;5.65;;;12.10;88.10;;;;;;4993230;28;20030;-78
2024/03/13 10:52:20;;;;;;;8.18;5.03;;;12.10;88.10;;;;;;5010417;28;20057;-79
2024/03/13 10:54:45;;;;;;;9.10;5.95;;;12.10;88.10;;;;;;4992897;28;20324;-78
2024/03/13 10:57:17;;;;;;;8.82;5.38;;;12.10;88.10;;;;;;4992940;28;20022;-78
2024/03/13 10:59:44;;;;;;;9.00;5.63;;;12.20;88.20;;;;;;5010718;28;20129;-78
2024/03/13 11:02:13;;;;;;;8.40;5.35;;;12.20;88.20;;;;;;5013554;28;20022;-78
2024/03/13 11:04:40;;;;;;;8.05;5.05;;;12.20;88.20;;;;;;4996935;28;20025;-78
2024/03/13 11:07:12;;;;;;;8.30;5.38;;;12.10;88.10;;;;;;4996536;28;20498;-78
2024/03/13 11:09:37;;;;;;;8.60;5.45;;;12.20;88.20;;;;;;5014420;28;20092;-78
2024/03/13 11:12:18;;;;;;;7.53;5.03;;;12.10;88.10;;;;;;4996396;28;20025;-79
2024/03/13 11:14:50;;;;;;;8.57;5.70;;;12.20;88.20;;;;;;5014258;28;20026;-79
2024/03/13 11:17:20;;;;;;;7.78;5.20;;;12.20;88.20;;;;;;4996405;28;20065;-78
2024/03/13 11:19:57;;;;;;;8.25;5.25;;;12.20;88.20;;;;;;4996479;28;20034;-79
2024/03/13 11:22:25;;;;;;;8.25;5.10;;;12.20;88.20;;;;;;5014147;28;20109;-78
2024/03/13 11:24:51;;;;;;;7.72;4.97;;;12.20;88.20;;;;;;4996402;28;20038;-78
2024/03/13 11:27:20;;;;;;;8.25;5.25;;;12.10;88.10;;;;;;4996234;28;20125;-78
2024/03/13 11:29:49;;;;;;;8.82;5.47;;;12.10;88.20;;;;;;4996305;28;20030;-78
2024/03/13 11:32:14;;;;;;;8.52;5.13;;;12.20;88.30;;;;;;4996114;28;20100;-78
2024/03/13 11:34:43;;;;;;;8.10;4.90;;;12.20;88.30;;;;;;5013937;28;20433;-79
2024/03/13 11:37:11;;;;;;;7.50;4.88;;;12.20;88.20;;;;;;4996082;28;20049;-79
2024/03/13 11:39:42;;;;;;;7.75;5.05;;;12.10;88.20;;;;;;5013664;28;20042;-78
2024/03/13 11:42:17;;;;;;;8.02;4.90;;;12.20;88.30;;;;;;4995957;28;20030;-78
2024/03/13 11:44:45;;;;;;;7.45;4.50;;;12.20;88.20;;;;;;5013622;28;20562;-79
2024/03/13 11:47:16;;;;;;;7.22;4.40;;;12.10;88.20;;;;;;5013659;28;20104;-78
2024/03/13 11:49:42;;;;;;;9.07;5.40;;;12.20;88.20;;;;;;4996066;28;20022;-79
2024/03/13 11:52:07;;;;;;;7.95;4.47;;;12.20;88.20;;;;;;5013539;28;20053;-78
2024/03/13 11:54:33;;;;;;;7.53;4.65;;;12.20;88.20;;;;;;5013601;28;20084;-78
2024/03/13 11:57:05;;;;;;;7.55;4.72;;;12.10;88.20;;;;;;4995610;28;20401;-78
2024/03/13 11:59:53;;;;;;;8.32;5.28;;;12.20;88.20;;;;;;5013230;28;20021;-78
2024/03/13 12:02:27;;;;;;;8.07;5.10;;;12.10;88.10;;;;;;5013427;28;20273;-78
2024/03/13 12:04:54;;;;;;;7.95;4.80;;;12.20;88.20;;;;;;5013424;28;20022;-79
2024/03/13 12:07:20;;;;;;;7.53;4.85;;;12.20;88.20;;;;;;5013294;28;20156;-78
2024/03/13 12:09:46;;;;;;;7.30;4.60;;;12.20;88.20;;;;;;4995714;28;20116;-78
2024/03/13 12:12:13;;;;;;;7.40;4.82;;;12.20;88.20;;;;;;4994570;28;20033;-78
2024/03/13 12:14:40;;;;;;;7.70;4.80;;;12.20;88.20;;;;;;5013074;28;20032;-79
2024/03/13 12:17:10;;;;;;;8.23;5.28;;;12.20;88.20;;;;;;4995315;28;20046;-78
2024/03/13 12:19:35;;;;;;;7.75;5.03;;;12.20;88.20;;;;;;4995564;28;20034;-78
2024/03/13 12:22:04;;;;;;;7.53;4.55;;;12.10;88.20;;;;;;5012807;28;20036;-78
2024/03/13 12:24:33;;;;;;;7.38;4.40;;;12.20;88.70;;;;;;4995250;28;20148;-79
2024/03/13 12:26:59;;;;;;;7.00;4.18;;;12.20;88.30;;;;;;5012894;28;20022;-78
2024/03/13 12:29:27;;;;;;;7.45;4.85;;;12.20;88.30;;;;;;5013145;28;20041;-78
2024/03/13 12:31:53;;;;;;;7.65;4.82;;;12.20;88.30;;;;;;4995061;28;20105;-78
2024/03/13 12:34:19;;;;;;;7.35;4.70;;;12.10;88.20;;;;;;4995155;28;20649;-78
2024/03/13 12:36:45;;;;;;;7.43;4.75;;;12.20;88.30;;;;;;5012869;28;20022;-79
2024/03/13 12:39:10;;;;;;;7.13;4.22;;;12.20;88.30;;;;;;5012410;28;20430;-80
2024/03/13 12:41:40;;;;;;;6.88;4.43;;;12.20;88.30;;;;;;4995108;28;20434;-78
2024/03/13 12:44:05;;;;;;;7.95;4.93;;;12.20;88.30;;;;;;4994946;28;20410;-78
2024/03/13 12:46:31;;;;;;;7.03;4.50;;;12.20;88.30;;;;;;4994923;28;20030;-79
2024/03/13 12:48:56;;;;;;;7.25;4.45;;;12.10;88.20;;;;;;5012465;28;20041;-78
2024/03/13 12:51:22;;;;;;;7.85;4.50;;;12.20;88.30;;;;;;5012360;28;20625;-78
2024/03/13 12:53:47;;;;;;;8.02;4.90;;;12.20;88.40;;;;;;4994656;28;20029;-78
2024/03/13 12:56:14;;;;;;;7.40;4.70;;;12.20;88.30;;;;;;5011959;28;20115;-78